Time;durP1;ratioP1;P1;durP2;ratioP2;P2;SDS_P1;SDS_P2;PMS_P1;PMS_P2;Temp;Humidity;BMP_temperature;BMP_pressure;BME280_temperature;BME280_humidity;BME280_pressure;Samples;Min_cycle;Max_cycle;Signal;HPM_P1;HPM_P2
2021/04/08 00:00:17;;;;;;;4.85;0.65;;;3.90;99.90;;;;;;5044199;28;20067;-73
2021/04/08 00:02:43;;;;;;;2.40;0.57;;;3.90;99.90;;;;;;5044620;28;20108;-74
2021/04/08 00:05:13;;;;;;;3.50;0.98;;;3.90;99.90;;;;;;5037885;28;20693;-74
2021/04/08 00:07:39;;;;;;;5.55;0.50;;;4.00;99.90;;;;;;5033110;28;20073;-74
2021/04/08 00:10:06;;;;;;;3.60;0.47;;;3.90;99.90;;;;;;5051805;28;20433;-76
2021/04/08 00:12:32;;;;;;;7.68;1.40;;;4.00;99.90;;;;;;5051515;28;20498;-76
2021/04/08 00:14:58;;;;;;;2.42;0.40;;;3.90;99.90;;;;;;5051128;28;20028;-75
2021/04/08 00:17:24;;;;;;;6.95;0.43;;;3.90;99.90;;;;;;5035804;28;20029;-75
2021/04/08 00:19:50;;;;;;;3.45;0.35;;;3.90;99.90;;;;;;5036056;28;20021;-74
2021/04/08 00:22:16;;;;;;;3.10;0.35;;;4.00;99.90;;;;;;5034352;28;20035;-77
2021/04/08 00:24:41;;;;;;;1.50;0.50;;;4.00;99.90;;;;;;5036349;28;20033;-75
2021/04/08 00:27:08;;;;;;;4.32;0.55;;;4.00;99.90;;;;;;5034774;28;20025;-74
2021/04/08 00:29:34;;;;;;;5.22;0.63;;;4.00;99.90;;;;;;5035985;28;20029;-73
2021/04/08 00:31:59;;;;;;;2.72;0.70;;;4.00;99.90;;;;;;5034610;28;20041;-75
2021/04/08 00:34:25;;;;;;;2.35;0.30;;;4.10;99.90;;;;;;5034906;28;20026;-75
2021/04/08 00:36:51;;;;;;;3.60;0.47;;;4.10;99.90;;;;;;5035803;28;20075;-75
2021/04/08 00:39:16;;;;;;;10.95;1.55;;;4.00;99.90;;;;;;5034474;28;20026;-75
2021/04/08 00:41:43;;;;;;;7.97;0.75;;;4.00;99.90;;;;;;5034888;28;20052;-74
2021/04/08 00:44:08;;;;;;;7.57;0.70;;;4.00;99.90;;;;;;5034748;28;20505;-76
2021/04/08 00:46:34;;;;;;;3.08;0.65;;;3.90;99.90;;;;;;5034146;28;20036;-75
2021/04/08 00:49:00;;;;;;;3.97;0.88;;;4.00;99.90;;;;;;5035811;28;20017;-75
2021/04/08 00:51:26;;;;;;;5.18;0.73;;;4.00;99.90;;;;;;5034166;28;20121;-76
2021/04/08 00:53:52;;;;;;;6.13;0.73;;;4.00;99.90;;;;;;5035405;28;20029;-76
2021/04/08 00:56:18;;;;;;;7.43;0.98;;;4.00;99.90;;;;;;5033855;28;20013;-75
2021/04/08 00:58:44;;;;;;;4.13;0.65;;;4.00;99.90;;;;;;5033857;28;20022;-74
2021/04/08 01:01:14;;;;;;;11.32;0.77;;;4.00;99.90;;;;;;5034665;28;20025;-75
2021/04/08 01:03:40;;;;;;;5.47;0.68;;;4.10;99.90;;;;;;5035033;28;20121;-75
2021/04/08 01:06:06;;;;;;;4.68;0.60;;;4.10;99.90;;;;;;5034839;28;20111;-75
2021/04/08 01:08:32;;;;;;;7.18;1.15;;;4.10;99.90;;;;;;5035633;28;20025;-74
2021/04/08 01:11:00;;;;;;;6.53;1.20;;;4.20;99.90;;;;;;5035988;28;20025;-74
2021/04/08 01:13:26;;;;;;;1.35;0.40;;;4.20;99.90;;;;;;5035047;28;20038;-75
2021/04/08 01:15:52;;;;;;;1.60;0.52;;;4.20;99.90;;;;;;5048872;28;20006;-75
2021/04/08 01:18:40;;;;;;;2.38;0.55;;;4.20;99.90;;;;;;5055660;28;20014;-74
2021/04/08 01:21:21;;;;;;;6.10;0.50;;;4.30;99.90;;;;;;5056593;28;20092;-75
2021/04/08 01:23:54;;;;;;;7.60;1.00;;;4.20;99.90;;;;;;5057335;28;20024;-74
2021/04/08 01:26:44;;;;;;;4.25;0.68;;;4.30;99.90;;;;;;5054346;28;20041;-75
2021/04/08 01:29:23;;;;;;;6.47;1.65;;;4.30;99.90;;;;;;5045914;28;20029;-74
2021/04/08 01:31:51;;;;;;;4.93;1.55;;;4.20;99.90;;;;;;5038495;28;20033;-76
2021/04/08 01:34:20;;;;;;;7.07;0.70;;;4.20;99.90;;;;;;5035923;28;20044;-75
2021/04/08 01:36:49;;;;;;;5.03;0.80;;;4.20;99.90;;;;;;5034371;28;20122;-76
2021/04/08 01:39:16;;;;;;;5.38;1.42;;;4.20;99.90;;;;;;5020464;28;20033;-75
2021/04/08 01:41:44;;;;;;;8.32;1.60;;;4.20;99.90;;;;;;5034469;28;20167;-75
2021/04/08 01:44:16;;;;;;;5.63;0.50;;;4.20;99.90;;;;;;5035205;28;20036;-80
2021/04/08 01:46:44;;;;;;;5.55;0.65;;;4.20;99.90;;;;;;5035113;28;20033;-76
2021/04/08 01:49:12;;;;;;;3.25;0.65;;;4.20;99.90;;;;;;5034260;28;20025;-76
2021/04/08 01:51:38;;;;;;;2.53;0.80;;;4.20;99.90;;;;;;5033371;28;20117;-75
2021/04/08 01:54:07;;;;;;;4.50;0.82;;;4.10;99.90;;;;;;5031963;28;20393;-76
2021/04/08 01:56:36;;;;;;;6.63;0.70;;;4.10;99.90;;;;;;5031768;28;20099;-76
2021/04/08 01:59:04;;;;;;;1.25;0.50;;;4.10;99.90;;;;;;5032649;28;20021;-75
2021/04/08 02:01:31;;;;;;;5.65;0.80;;;4.00;99.90;;;;;;5032607;28;20022;-76
2021/04/08 02:03:57;;;;;;;10.63;0.73;;;4.00;99.90;;;;;;5032443;28;20040;-75
2021/04/08 02:06:26;;;;;;;5.57;0.98;;;3.90;99.90;;;;;;5032568;28;20041;-76
2021/04/08 02:08:53;;;;;;;7.00;1.17;;;3.90;99.90;;;;;;5034828;28;20021;-76
2021/04/08 02:11:20;;;;;;;2.88;0.57;;;3.90;99.90;;;;;;5045834;28;20021;-76
2021/04/08 02:13:49;;;;;;;1.17;0.45;;;3.80;99.90;;;;;;5050870;28;20095;-76
2021/04/08 02:16:19;;;;;;;6.85;0.77;;;3.90;99.90;;;;;;5034486;28;20029;-76
2021/04/08 02:18:47;;;;;;;7.10;0.73;;;3.90;99.90;;;;;;5033697;28;20033;-77
2021/04/08 02:21:14;;;;;;;4.38;1.00;;;4.00;99.90;;;;;;5033165;28;20406;-76
2021/04/08 02:23:41;;;;;;;7.30;1.83;;;4.00;99.90;;;;;;5031660;28;20025;-74
2021/04/08 02:26:15;;;;;;;0.90;0.60;;;4.00;99.90;;;;;;5033171;28;20033;-76
2021/04/08 02:28:43;;;;;;;11.02;1.77;;;4.00;99.90;;;;;;5032978;28;20112;-76
2021/04/08 02:31:08;;;;;;;4.65;0.90;;;4.00;99.90;;;;;;5032150;28;20426;-77
2021/04/08 02:33:34;;;;;;;4.32;0.85;;;4.10;99.90;;;;;;5032696;28;20121;-76
2021/04/08 02:36:02;;;;;;;5.60;0.80;;;4.00;99.90;;;;;;5032259;28;20026;-76
2021/04/08 02:38:30;;;;;;;8.53;1.67;;;4.00;99.90;;;;;;5033418;28;20025;-76
2021/04/08 02:40:58;;;;;;;;;;;4.00;99.90;;;;;;5059851;28;20021;-76
2021/04/08 02:43:24;;;;;;;2.92;0.80;;;4.00;99.90;;;;;;5048868;28;19913;-75
2021/04/08 02:45:50;;;;;;;3.38;0.80;;;4.00;99.90;;;;;;5053440;28;20009;-75
2021/04/08 02:48:18;;;;;;;4.68;0.88;;;4.00;99.90;;;;;;5055364;28;20017;-77
2021/04/08 02:50:49;;;;;;;4.60;1.65;;;4.00;99.90;;;;;;5055093;28;20041;-76
2021/04/08 02:53:43;;;;;;;3.38;0.70;;;4.10;99.90;;;;;;5050893;28;20053;-73
2021/04/08 02:56:17;;;;;;;3.65;1.00;;;4.10;99.90;;;;;;5048552;28;20025;-76
2021/04/08 02:58:46;;;;;;;5.60;0.93;;;4.10;99.90;;;;;;5040253;28;20053;-75
2021/04/08 03:01:13;;;;;;;2.92;1.08;;;4.20;99.90;;;;;;5033907;28;20159;-75
2021/04/08 03:03:53;;;;;;;3.03;0.70;;;4.20;99.90;;;;;;5036266;28;20030;-76
2021/04/08 03:06:20;;;;;;;4.45;0.77;;;4.20;99.90;;;;;;5033269;28;20386;-76
2021/04/08 03:08:52;;;;;;;6.72;0.90;;;4.30;99.90;;;;;;5032996;28;20064;-75
2021/04/08 03:11:29;;;;;;;4.18;0.82;;;4.30;99.90;;;;;;5032034;28;20095;-75
2021/04/08 03:14:00;;;;;;;1.83;0.55;;;4.30;99.90;;;;;;5032164;28;20490;-75
2021/04/08 03:16:33;;;;;;;4.35;0.80;;;4.40;99.90;;;;;;5032116;28;20044;-76
2021/04/08 03:19:01;;;;;;;2.13;0.80;;;4.30;99.90;;;;;;5031406;28;20044;-76
2021/04/08 03:21:27;;;;;;;2.53;0.88;;;4.30;99.90;;;;;;5048028;28;20034;-75
2021/04/08 03:23:55;;;;;;;4.32;0.95;;;4.30;99.90;;;;;;5032855;28;20429;-74
2021/04/08 03:26:23;;;;;;;9.40;1.00;;;4.40;99.90;;;;;;5032536;28;20037;-76
2021/04/08 03:28:50;;;;;;;5.75;1.27;;;4.40;99.90;;;;;;5032773;28;20467;-76
2021/04/08 03:31:19;;;;;;;5.88;0.90;;;4.40;99.90;;;;;;5023687;28;20262;-76
2021/04/08 03:33:45;;;;;;;3.05;0.93;;;4.40;99.90;;;;;;5030370;28;20044;-76
2021/04/08 03:36:12;;;;;;;10.68;0.90;;;4.40;99.90;;;;;;5034105;28;20045;-76
2021/04/08 03:38:38;;;;;;;2.80;0.68;;;4.30;99.90;;;;;;5036624;28;20049;-75
2021/04/08 03:41:04;;;;;;;7.78;0.73;;;4.20;99.90;;;;;;5035087;28;20037;-74
2021/04/08 03:43:30;;;;;;;10.15;1.08;;;4.20;99.90;;;;;;5034824;28;20037;-74
2021/04/08 03:46:02;;;;;;;33.38;9.00;;;4.20;99.90;;;;;;5034008;28;20393;-74
2021/04/08 03:48:31;;;;;;;27.33;8.18;;;4.20;99.90;;;;;;5047529;28;20029;-75
2021/04/08 03:50:57;;;;;;;22.75;8.25;;;4.20;99.90;;;;;;5034768;28;20499;-75
2021/04/08 03:53:24;;;;;;;16.23;4.28;;;4.30;99.90;;;;;;5035817;28;20172;-74
2021/04/08 03:55:50;;;;;;;3.75;2.33;;;4.30;99.90;;;;;;5048186;28;20029;-74
2021/04/08 03:58:17;;;;;;;7.35;1.65;;;4.20;99.90;;;;;;5033636;28;20371;-75
2021/04/08 04:00:44;;;;;;;14.82;3.85;;;4.20;99.90;;;;;;5033300;28;20190;-75
2021/04/08 04:03:11;;;;;;;29.73;11.38;;;4.20;99.90;;;;;;5034138;28;20043;-75
2021/04/08 04:05:39;;;;;;;8.10;3.42;;;4.10;99.90;;;;;;5034632;28;20501;-75
2021/04/08 04:08:05;;;;;;;7.32;1.45;;;4.10;99.90;;;;;;5035813;28;20030;-75
2021/04/08 04:10:35;;;;;;;2.70;1.67;;;4.10;99.90;;;;;;5035653;28;20112;-75
2021/04/08 04:13:01;;;;;;;4.22;1.00;;;4.00;99.90;;;;;;5035076;28;20033;-75
2021/04/08 04:15:27;;;;;;;3.90;0.98;;;3.90;99.90;;;;;;5035670;28;20030;-75
2021/04/08 04:17:53;;;;;;;12.07;2.75;;;3.80;99.90;;;;;;5035516;28;20053;-76
2021/04/08 04:20:20;;;;;;;20.95;4.38;;;3.70;99.90;;;;;;5036453;28;20151;-76
2021/04/08 04:22:45;;;;;;;11.57;1.42;;;3.70;99.90;;;;;;5035404;28;20025;-75
2021/04/08 04:25:13;;;;;;;11.13;3.08;;;3.60;99.90;;;;;;5037016;28;20029;-77
2021/04/08 04:27:39;;;;;;;7.75;1.83;;;3.60;99.90;;;;;;5037707;28;20343;-76
2021/04/08 04:30:07;;;;;;;8.20;1.92;;;3.50;99.90;;;;;;5054929;28;20390;-76
2021/04/08 04:32:33;;;;;;;12.57;2.00;;;3.50;99.90;;;;;;5037934;28;20394;-76
2021/04/08 04:34:58;;;;;;;8.32;2.88;;;3.40;99.90;;;;;;5035154;28;20021;-76
2021/04/08 04:37:24;;;;;;;7.65;2.67;;;3.30;99.90;;;;;;5036394;28;20057;-76
2021/04/08 04:39:50;;;;;;;5.63;1.20;;;3.30;99.90;;;;;;5034984;28;20037;-76
2021/04/08 04:42:16;;;;;;;10.50;3.33;;;3.30;99.90;;;;;;5047928;28;20557;-76
2021/04/08 04:44:42;;;;;;;14.15;3.33;;;3.20;99.90;;;;;;5034639;28;20041;-76
2021/04/08 04:47:08;;;;;;;30.88;9.32;;;3.20;99.90;;;;;;5033352;28;20036;-76
2021/04/08 04:49:34;;;;;;;4.95;1.80;;;3.10;99.90;;;;;;5034091;28;20033;-76
2021/04/08 04:51:59;;;;;;;4.38;0.98;;;3.10;99.90;;;;;;5033592;28;20406;-76
2021/04/08 04:54:25;;;;;;;5.03;1.40;;;3.00;99.90;;;;;;5035173;28;20041;-76
2021/04/08 04:56:51;;;;;;;11.90;1.17;;;3.00;99.90;;;;;;5035402;28;20109;-77
2021/04/08 04:59:18;;;;;;;10.00;1.40;;;3.00;99.90;;;;;;5031085;28;20128;-76
2021/04/08 05:01:43;;;;;;;7.00;1.63;;;3.00;99.90;;;;;;5033605;28;20069;-77
2021/04/08 05:04:09;;;;;;;5.22;1.40;;;3.00;99.90;;;;;;5034962;28;20060;-75
2021/04/08 05:06:35;;;;;;;8.00;1.45;;;2.90;99.90;;;;;;5034172;28;20065;-76
2021/04/08 05:09:01;;;;;;;13.82;2.10;;;2.90;99.90;;;;;;5034170;28;20501;-76
2021/04/08 05:11:27;;;;;;;10.85;1.33;;;3.00;99.90;;;;;;5033375;28;20027;-78
2021/04/08 05:13:53;;;;;;;2.63;1.35;;;3.00;99.90;;;;;;5034455;28;20049;-77
2021/04/08 05:16:20;;;;;;;3.85;1.30;;;3.00;99.90;;;;;;5034031;28;20026;-77
2021/04/08 05:18:45;;;;;;;10.70;3.97;;;3.00;99.90;;;;;;5034052;28;20029;-77
2021/04/08 05:21:11;;;;;;;5.07;2.10;;;3.10;99.90;;;;;;5034387;28;20036;-78
2021/04/08 05:23:38;;;;;;;7.55;1.85;;;3.10;99.90;;;;;;5033066;28;20073;-75
2021/04/08 05:26:04;;;;;;;4.82;1.52;;;3.20;99.90;;;;;;5032309;28;20045;-75
2021/04/08 05:28:30;;;;;;;3.30;1.40;;;3.20;99.90;;;;;;5034370;28;20155;-76
2021/04/08 05:30:56;;;;;;;7.25;1.38;;;3.30;99.90;;;;;;5032610;28;20537;-75
2021/04/08 05:33:21;;;;;;;5.90;1.60;;;3.40;99.90;;;;;;5034347;28;20036;-76
2021/04/08 05:35:47;;;;;;;3.97;1.02;;;3.60;99.90;;;;;;5033071;28;20164;-75
2021/04/08 05:38:13;;;;;;;4.40;1.70;;;3.60;99.90;;;;;;5034272;28;20091;-75
2021/04/08 05:40:38;;;;;;;4.80;1.60;;;3.70;99.90;;;;;;5033758;28;20478;-75
2021/04/08 05:43:04;;;;;;;6.68;1.30;;;3.80;99.90;;;;;;5034005;28;20035;-77
2021/04/08 05:45:31;;;;;;;26.33;8.07;;;3.90;99.90;;;;;;5039584;28;21466;-78
2021/04/08 05:47:57;;;;;;;2.30;1.60;;;4.00;99.90;;;;;;5052217;28;20025;-76
2021/04/08 05:50:23;;;;;;;4.53;1.40;;;4.10;99.90;;;;;;5054119;28;20009;-76
2021/04/08 05:52:49;;;;;;;9.02;1.52;;;4.10;99.90;;;;;;5053682;28;20025;-75
2021/04/08 05:55:15;;;;;;;1.50;1.30;;;4.20;99.90;;;;;;5039491;28;20104;-75
2021/04/08 05:57:41;;;;;;;3.28;1.08;;;4.20;99.90;;;;;;5037875;28;20052;-74
2021/04/08 06:00:09;;;;;;;6.10;1.27;;;4.20;99.90;;;;;;5034535;28;20018;-76
2021/04/08 06:02:34;;;;;;;4.40;1.38;;;4.30;99.90;;;;;;5033869;28;20477;-75
2021/04/08 06:05:02;;;;;;;7.63;1.92;;;4.30;99.90;;;;;;5031494;28;20124;-76
2021/04/08 06:07:28;;;;;;;2.90;1.33;;;4.30;99.90;;;;;;5048277;28;20033;-75
2021/04/08 06:09:53;;;;;;;5.85;2.20;;;4.40;99.90;;;;;;5033225;28;20043;-77
2021/04/08 06:12:19;;;;;;;2.58;1.38;;;4.40;99.90;;;;;;5032172;28;20675;-76
2021/04/08 06:14:47;;;;;;;12.27;1.73;;;4.50;99.90;;;;;;5032167;28;20043;-77
2021/04/08 06:17:13;;;;;;;4.53;1.17;;;4.50;99.90;;;;;;5032197;28;20029;-77
2021/04/08 06:19:39;;;;;;;4.90;1.48;;;4.60;99.90;;;;;;5029143;28;20044;-76
2021/04/08 06:22:04;;;;;;;5.72;1.63;;;4.80;99.90;;;;;;5032820;28;20112;-77
2021/04/08 06:24:30;;;;;;;4.40;1.50;;;4.90;99.90;;;;;;5030389;28;20029;-78
2021/04/08 06:26:57;;;;;;;5.63;1.67;;;5.00;99.90;;;;;;5029366;28;20171;-75
2021/04/08 06:29:22;;;;;;;2.75;1.15;;;5.00;99.90;;;;;;5033570;28;20079;-75
2021/04/08 06:31:49;;;;;;;1.77;1.48;;;5.10;99.90;;;;;;5033435;28;20041;-75
2021/04/08 06:34:15;;;;;;;2.80;1.40;;;5.10;99.90;;;;;;5048089;28;20060;-77
2021/04/08 06:36:41;;;;;;;4.13;1.15;;;5.20;99.90;;;;;;5031961;28;20029;-74
2021/04/08 06:39:06;;;;;;;3.70;1.55;;;5.20;99.90;;;;;;5032865;28;20032;-76
2021/04/08 06:41:37;;;;;;;5.95;1.23;;;5.20;99.90;;;;;;5030303;28;20025;-74
2021/04/08 06:44:05;;;;;;;4.90;1.63;;;5.30;99.90;;;;;;5037249;28;20060;-74
2021/04/08 06:46:37;;;;;;;5.40;1.40;;;5.20;99.90;;;;;;5039718;28;20442;-75
2021/04/08 06:49:30;;;;;;;3.83;1.80;;;5.10;99.90;;;;;;5035583;28;20033;-74
2021/04/08 06:51:58;;;;;;;6.75;1.70;;;5.10;99.90;;;;;;5031923;28;20037;-74
2021/04/08 06:54:25;;;;;;;7.10;3.17;;;5.00;99.90;;;;;;5047968;28;20504;-73
2021/04/08 06:56:51;;;;;;;4.15;2.15;;;5.00;99.90;;;;;;5030929;28;20041;-74
2021/04/08 06:59:17;;;;;;;2.10;1.50;;;5.00;99.90;;;;;;5030980;28;20040;-75
2021/04/08 07:01:45;;;;;;;2.97;1.35;;;5.20;99.90;;;;;;5031447;28;20496;-76
2021/04/08 07:04:12;;;;;;;7.03;2.20;;;5.30;99.90;;;;;;5031166;28;20040;-75
2021/04/08 07:06:38;;;;;;;4.18;1.70;;;5.30;99.90;;;;;;5030464;28;20083;-75
2021/04/08 07:09:07;;;;;;;5.05;1.67;;;5.50;99.90;;;;;;5031259;28;20057;-75
2021/04/08 07:11:35;;;;;;;3.95;1.80;;;5.60;99.90;;;;;;5031631;28;20041;-74
2021/04/08 07:14:01;;;;;;;5.35;1.40;;;5.70;99.90;;;;;;5031202;28;20026;-74
2021/04/08 07:16:29;;;;;;;5.97;1.70;;;5.90;99.90;;;;;;5032459;28;20056;-74
2021/04/08 07:18:55;;;;;;;;;;;5.90;99.90;;;;;;5033015;28;20082;-74
2021/04/08 07:21:22;;;;;;;9.35;1.67;;;6.10;99.90;;;;;;5033631;28;20266;-76
2021/04/08 07:24:07;;;;;;;4.35;1.58;;;6.30;99.90;;;;;;5033482;28;20037;-77
2021/04/08 07:26:48;;;;;;;6.55;1.98;;;6.40;99.90;;;;;;5033843;28;20450;-76
2021/04/08 07:29:14;;;;;;;5.07;2.30;;;6.70;99.90;;;;;;5032531;28;20060;-76
2021/04/08 07:31:39;;;;;;;13.80;2.55;;;6.90;99.90;;;;;;5032081;28;20471;-75
2021/04/08 07:34:05;;;;;;;4.68;2.03;;;7.10;99.90;;;;;;5032252;28;20524;-75
2021/04/08 07:36:32;;;;;;;5.82;2.75;;;7.30;99.90;;;;;;5032171;28;20057;-74
2021/04/08 07:39:00;;;;;;;2.90;2.00;;;7.40;99.90;;;;;;5030276;28;20421;-74
2021/04/08 07:41:28;;;;;;;6.43;1.85;;;7.30;99.90;;;;;;5031912;28;20025;-74
2021/04/08 07:43:58;;;;;;;3.58;1.98;;;7.30;99.90;;;;;;5030572;28;20039;-73
2021/04/08 07:46:36;;;;;;;2.55;1.80;;;7.30;99.90;;;;;;5030953;28;20057;-75
2021/04/08 07:49:03;;;;;;;8.60;1.50;;;7.30;99.90;;;;;;5031121;28;20041;-76
2021/04/08 07:51:31;;;;;;;3.75;1.45;;;7.10;99.90;;;;;;5030579;28;20262;-73
2021/04/08 07:54:16;;;;;;;3.83;1.60;;;7.20;99.90;;;;;;5029617;28;20099;-72
2021/04/08 07:56:42;;;;;;;3.75;1.40;;;7.10;99.90;;;;;;5031350;28;20429;-77
2021/04/08 07:59:20;;;;;;;5.57;1.70;;;7.20;99.90;;;;;;5030646;28;20451;-78
2021/04/08 08:01:47;;;;;;;4.60;1.40;;;7.20;99.90;;;;;;5049330;28;20048;-73
2021/04/08 08:04:21;;;;;;;5.68;1.50;;;7.20;99.90;;;;;;5031604;28;20064;-74
2021/04/08 08:06:47;;;;;;;1.80;1.27;;;7.20;99.90;;;;;;5032019;28;20034;-76
2021/04/08 08:09:13;;;;;;;8.00;2.10;;;7.20;99.90;;;;;;5031394;28;20036;-74
2021/04/08 08:11:40;;;;;;;6.00;2.00;;;7.10;99.90;;;;;;5032171;28;20037;-74
2021/04/08 08:14:06;;;;;;;7.28;2.38;;;7.10;99.90;;;;;;5030902;28;20095;-76
2021/04/08 08:16:32;;;;;;;5.32;2.10;;;7.10;99.90;;;;;;5030397;28;20037;-74
2021/04/08 08:18:59;;;;;;;4.15;2.00;;;7.20;99.90;;;;;;5031863;28;20035;-74
2021/04/08 08:21:29;;;;;;;6.83;1.90;;;7.20;99.90;;;;;;5032847;28;20092;-74
2021/04/08 08:23:57;;;;;;;5.65;3.10;;;7.40;99.90;;;;;;5034616;28;20554;-74
2021/04/08 08:26:35;;;;;;;5.18;2.03;;;7.50;99.90;;;;;;5033944;28;20485;-75
2021/04/08 08:29:15;;;;;;;7.07;2.40;;;7.60;99.90;;;;;;5038198;28;20580;-76
2021/04/08 08:31:47;;;;;;;2.88;2.15;;;7.70;99.90;;;;;;5034212;28;20022;-72
2021/04/08 08:34:21;;;;;;;8.27;2.45;;;7.70;99.90;;;;;;5035586;28;20393;-73
2021/04/08 08:36:54;;;;;;;4.55;2.50;;;7.80;99.90;;;;;;5043123;28;20070;-74
2021/04/08 08:39:25;;;;;;;6.55;1.90;;;7.90;99.90;;;;;;5046743;28;20488;-75
2021/04/08 08:41:51;;;;;;;4.40;2.03;;;7.90;99.90;;;;;;5054608;28;20020;-74
2021/04/08 08:44:18;;;;;;;3.28;1.88;;;7.90;99.90;;;;;;5054029;28;20108;-74
2021/04/08 08:47:08;;;;;;;4.68;2.55;;;8.00;99.90;;;;;;5035561;28;20029;-74
2021/04/08 08:49:57;;;;;;;6.72;3.00;;;8.00;99.90;;;;;;5047139;28;20460;-73
2021/04/08 08:52:33;;;;;;;7.35;3.30;;;8.00;99.90;;;;;;5035581;28;20021;-73
2021/04/08 08:55:00;;;;;;;9.27;2.67;;;8.00;99.90;;;;;;5035040;28;20460;-75
2021/04/08 08:57:27;;;;;;;4.18;2.55;;;7.90;99.90;;;;;;5036747;28;20028;-76
2021/04/08 08:59:55;;;;;;;4.13;2.65;;;7.90;99.90;;;;;;5036979;28;20067;-76
2021/04/08 09:02:21;;;;;;;7.78;2.55;;;7.90;99.90;;;;;;5036123;28;20097;-75
2021/04/08 09:04:47;;;;;;;7.72;2.70;;;7.80;99.90;;;;;;5034251;28;20018;-75
2021/04/08 09:07:14;;;;;;;6.38;3.13;;;7.80;99.90;;;;;;5035222;28;20025;-75
2021/04/08 09:09:53;;;;;;;8.43;2.55;;;7.80;99.90;;;;;;5042109;28;20037;-75
2021/04/08 09:12:19;;;;;;;6.03;2.45;;;7.70;99.90;;;;;;5035152;28;20018;-75
2021/04/08 09:14:47;;;;;;;8.80;3.17;;;7.70;99.90;;;;;;5035032;28;20094;-73
2021/04/08 09:17:37;;;;;;;4.40;2.50;;;7.80;99.90;;;;;;5032516;28;20064;-73
2021/04/08 09:20:07;;;;;;;3.65;2.53;;;8.00;99.90;;;;;;5034244;28;20029;-73
2021/04/08 09:22:33;;;;;;;7.63;3.05;;;8.00;99.90;;;;;;5034024;28;20033;-74
2021/04/08 09:25:00;;;;;;;10.50;3.60;;;8.00;99.90;;;;;;5033463;28;20098;-75
2021/04/08 09:27:26;;;;;;;7.15;2.78;;;8.00;99.90;;;;;;5034058;28;20029;-72
2021/04/08 09:29:56;;;;;;;10.73;4.97;;;8.00;99.90;;;;;;5033005;28;20167;-72
2021/04/08 09:32:48;;;;;;;5.18;2.83;;;7.90;99.90;;;;;;5031853;28;20098;-72
2021/04/08 09:35:19;;;;;;;11.38;3.95;;;7.90;99.90;;;;;;5032829;28;20034;-72
2021/04/08 09:37:47;;;;;;;7.15;3.05;;;7.90;99.90;;;;;;5040424;28;20123;-73
2021/04/08 09:40:22;;;;;;;8.50;2.67;;;7.90;99.90;;;;;;5025801;28;20485;-73
2021/04/08 09:42:53;;;;;;;7.05;3.15;;;8.00;99.90;;;;;;5035180;28;20439;-72
2021/04/08 09:45:19;;;;;;;8.60;3.15;;;7.90;99.90;;;;;;5035554;28;20473;-73
2021/04/08 09:47:45;;;;;;;3.80;2.70;;;7.90;99.90;;;;;;5031512;28;20037;-73
2021/04/08 09:50:42;;;;;;;6.30;2.72;;;7.90;99.90;;;;;;5032837;28;20033;-74
2021/04/08 09:53:09;;;;;;;5.35;3.08;;;8.20;99.90;;;;;;5042748;28;20119;-74
2021/04/08 09:55:34;;;;;;;8.55;3.05;;;8.30;99.90;;;;;;5034218;28;20191;-75
2021/04/08 09:58:02;;;;;;;6.28;3.17;;;8.50;99.90;;;;;;5026736;28;20121;-73
2021/04/08 10:00:28;;;;;;;5.07;3.25;;;8.70;99.90;;;;;;5031499;28;20037;-73
2021/04/08 10:03:05;;;;;;;9.98;3.78;;;8.80;99.90;;;;;;5033270;28;20034;-73
2021/04/08 10:05:35;;;;;;;11.05;4.13;;;8.90;99.90;;;;;;5028560;28;20025;-72
2021/04/08 10:08:02;;;;;;;15.80;3.88;;;8.90;99.90;;;;;;5029534;28;20363;-73
2021/04/08 10:10:36;;;;;;;7.07;3.47;;;8.90;99.90;;;;;;5032155;28;20364;-73
2021/04/08 10:13:29;;;;;;;9.75;3.55;;;8.80;99.90;;;;;;5031222;28;20052;-74
2021/04/08 10:15:57;;;;;;;12.07;3.83;;;8.90;99.90;;;;;;5029668;28;20112;-73
2021/04/08 10:18:24;;;;;;;12.63;3.90;;;9.00;99.90;;;;;;5030653;28;20033;-75
2021/04/08 10:20:52;;;;;;;14.27;3.60;;;9.00;99.90;;;;;;5040849;28;20026;-73
2021/04/08 10:23:37;;;;;;;6.68;3.38;;;8.90;99.90;;;;;;5033947;28;20033;-73
2021/04/08 10:26:10;;;;;;;12.63;3.85;;;9.00;99.80;;;;;;5040179;28;20036;-75
2021/04/08 10:28:55;;;;;;;9.77;5.38;;;9.00;99.90;;;;;;5033755;28;20029;-73
2021/04/08 10:31:24;;;;;;;8.88;4.50;;;9.10;99.90;;;;;;5029778;28;20029;-73
2021/04/08 10:34:07;;;;;;;9.95;4.25;;;8.80;99.90;;;;;;5016879;28;20087;-73
2021/04/08 10:36:49;;;;;;;8.02;4.05;;;8.90;99.90;;;;;;5022887;28;20490;-75
2021/04/08 10:39:25;;;;;;;8.80;4.10;;;8.90;99.90;;;;;;5031084;28;20026;-74
2021/04/08 10:41:57;;;;;;;11.15;4.63;;;8.90;99.90;;;;;;5030916;28;20497;-74
2021/04/08 10:44:24;;;;;;;8.73;3.70;;;9.00;99.90;;;;;;5032620;28;20025;-73
2021/04/08 10:46:51;;;;;;;10.52;4.45;;;9.10;99.90;;;;;;5029034;28;20073;-73
2021/04/08 10:49:45;;;;;;;6.72;3.90;;;9.20;99.90;;;;;;5035558;28;20082;-73
2021/04/08 10:52:14;;;;;;;10.23;5.93;;;9.40;99.90;;;;;;5022331;28;20033;-73
2021/04/08 10:54:41;;;;;;;7.38;3.97;;;9.60;99.90;;;;;;5032052;28;20382;-73
2021/04/08 10:57:08;;;;;;;7.88;3.90;;;9.70;99.40;;;;;;5030624;28;20029;-73
2021/04/08 10:59:37;;;;;;;9.60;4.70;;;9.80;99.90;;;;;;5031370;28;20033;-74
2021/04/08 11:02:20;;;;;;;6.50;3.97;;;9.90;99.90;;;;;;5032077;28;20023;-73
2021/04/08 11:04:46;;;;;;;7.68;4.57;;;10.10;99.80;;;;;;5031490;28;20093;-74
2021/04/08 11:07:12;;;;;;;8.48;4.60;;;10.20;99.90;;;;;;5027376;28;20037;-73
2021/04/08 11:09:37;;;;;;;7.03;4.43;;;10.40;99.90;;;;;;5030071;28;20033;-73
2021/04/08 11:12:19;;;;;;;7.07;4.43;;;10.60;99.80;;;;;;5031469;28;20029;-74
2021/04/08 11:14:54;;;;;;;6.90;4.43;;;10.60;98.70;;;;;;5031486;28;20034;-74
2021/04/08 11:17:21;;;;;;;4.88;4.43;;;10.40;99.20;;;;;;5032936;28;20051;-74
2021/04/08 11:19:47;;;;;;;7.00;4.10;;;10.40;99.80;;;;;;5032035;28;20084;-74
2021/04/08 11:22:19;;;;;;;6.30;3.60;;;10.30;99.60;;;;;;5031705;28;20268;-73
2021/04/08 11:24:47;;;;;;;4.38;3.67;;;10.40;99.10;;;;;;5029159;28;20397;-73
2021/04/08 11:27:13;;;;;;;5.47;3.97;;;10.40;98.60;;;;;;5029619;28;20044;-72
2021/04/08 11:29:39;;;;;;;5.70;3.83;;;10.30;99.10;;;;;;5029529;28;20014;-73
2021/04/08 11:32:10;;;;;;;11.25;4.10;;;10.40;98.90;;;;;;5029939;28;20401;-73
2021/04/08 11:34:50;;;;;;;4.57;3.33;;;10.40;98.30;;;;;;5033681;28;20397;-73
2021/04/08 11:37:34;;;;;;;7.97;3.80;;;10.60;98.60;;;;;;5031012;28;20029;-72
2021/04/08 11:40:00;;;;;;;9.52;4.40;;;10.70;98.30;;;;;;5030514;28;20390;-73
2021/04/08 11:42:35;;;;;;;6.35;3.60;;;10.50;98.20;;;;;;5031553;28;20485;-73
2021/04/08 11:45:21;;;;;;;8.65;3.80;;;10.50;99.10;;;;;;5029914;28;20041;-73
2021/04/08 11:48:07;;;;;;;7.00;3.60;;;10.20;98.00;;;;;;5030505;28;20037;-74
2021/04/08 11:50:33;;;;;;;6.82;3.90;;;10.10;99.10;;;;;;5043436;28;20413;-74
2021/04/08 11:53:00;;;;;;;6.93;4.22;;;10.10;99.90;;;;;;5047923;28;20039;-73
2021/04/08 11:55:35;;;;;;;5.82;3.90;;;10.00;99.90;;;;;;5037068;28;20049;-73
2021/04/08 11:58:00;;;;;;;8.18;3.92;;;9.90;99.80;;;;;;5045213;28;20014;-73
2021/04/08 12:00:29;;;;;;;8.57;4.53;;;10.00;99.90;;;;;;5052837;28;20082;-74
2021/04/08 12:02:55;;;;;;;7.38;3.88;;;10.30;99.90;;;;;;5054237;28;20064;-74
2021/04/08 12:05:21;;;;;;;6.13;3.97;;;10.20;98.20;;;;;;5055447;28;20029;-74
2021/04/08 12:07:49;;;;;;;7.80;4.25;;;10.20;99.60;;;;;;5042775;28;20021;-73
2021/04/08 12:10:28;;;;;;;5.15;3.65;;;10.10;99.30;;;;;;5042887;28;20033;-73
2021/04/08 12:12:56;;;;;;;7.60;3.58;;;10.00;99.40;;;;;;5016608;28;20032;-72
2021/04/08 12:15:33;;;;;;;8.40;4.18;;;9.90;99.70;;;;;;5019930;28;20045;-73
2021/04/08 12:17:59;;;;;;;9.80;3.97;;;9.80;99.90;;;;;;5033952;28;20029;-73
2021/04/08 12:20:25;;;;;;;7.80;3.83;;;9.80;99.90;;;;;;5034227;28;20080;-73
2021/04/08 12:22:52;;;;;;;7.30;4.70;;;10.00;99.90;;;;;;5035151;28;20330;-73
2021/04/08 12:25:20;;;;;;;5.30;3.67;;;10.00;99.90;;;;;;5035301;28;20453;-72
2021/04/08 12:27:47;;;;;;;8.95;4.55;;;10.10;99.90;;;;;;5034472;28;20029;-72
2021/04/08 12:30:14;;;;;;;5.85;4.03;;;10.40;99.10;;;;;;5033325;28;20026;-73
2021/04/08 12:32:40;;;;;;;6.00;3.72;;;10.50;99.00;;;;;;5031977;28;20036;-73
2021/04/08 12:35:08;;;;;;;9.23;4.13;;;10.60;99.70;;;;;;5034711;28;20026;-73
2021/04/08 12:37:34;;;;;;;7.57;3.92;;;10.70;99.10;;;;;;5034866;28;20109;-73
2021/04/08 12:40:00;;;;;;;8.77;3.50;;;10.80;98.30;;;;;;5035624;28;20429;-72
2021/04/08 12:42:26;;;;;;;6.32;3.10;;;10.80;98.10;;;;;;5035632;28;20030;-73
2021/04/08 12:44:52;;;;;;;5.95;3.47;;;11.00;98.30;;;;;;5045689;28;20021;-72
2021/04/08 12:47:20;;;;;;;6.70;3.90;;;10.90;97.20;;;;;;5024958;28;20478;-72
2021/04/08 12:49:46;;;;;;;14.40;4.65;;;10.80;98.90;;;;;;5033123;28;20017;-73
2021/04/08 12:52:11;;;;;;;7.60;5.10;;;10.90;99.50;;;;;;5035267;28;20101;-72
2021/04/08 12:54:37;;;;;;;7.80;3.80;;;11.10;97.70;;;;;;5032833;28;20113;-73
2021/04/08 12:57:03;;;;;;;6.25;4.00;;;11.40;98.00;;;;;;5033365;28;20128;-75
2021/04/08 12:59:29;;;;;;;9.30;5.18;;;11.50;98.10;;;;;;5027885;28;20014;-73
2021/04/08 13:01:54;;;;;;;4.95;4.07;;;11.60;97.70;;;;;;5033465;28;20021;-73
2021/04/08 13:04:20;;;;;;;6.85;5.00;;;11.60;97.30;;;;;;5032412;28;20049;-73